createdAt,value
2022-12-18T00:00:56.646Z,-6.03
2022-12-18T00:02:02.344Z,-6.11
2022-12-18T00:03:04.003Z,-6.16
2022-12-18T00:04:08.826Z,-6.20
2022-12-18T00:05:10.439Z,-6.17
2022-12-18T00:06:12.725Z,-6.11
2022-12-18T00:07:14.127Z,-6.08
2022-12-18T00:08:16.505Z,-6.12
2022-12-18T00:09:17.946Z,-6.10
2022-12-18T00:10:19.351Z,-6.09
2022-12-18T00:11:24.499Z,-6.14
2022-12-18T00:12:30.011Z,-6.07
2022-12-18T00:13:32.212Z,-6.05
2022-12-18T00:14:33.732Z,-5.95
2022-12-18T00:15:36.116Z,-5.95
2022-12-18T00:16:37.991Z,-6.01
2022-12-18T00:17:39.413Z,-6.01
2022-12-18T00:18:41.622Z,-6.02
2022-12-18T00:19:43.332Z,-6.11
2022-12-18T00:20:44.729Z,-6.17
2022-12-18T00:21:46.546Z,-6.10
2022-12-18T00:22:47.944Z,-6.07
2022-12-18T00:23:51.164Z,-6.16
2022-12-18T00:24:52.584Z,-6.14
2022-12-18T00:25:54.018Z,-6.06
2022-12-18T00:26:55.511Z,-6.06
2022-12-18T00:27:56.910Z,-5.97
2022-12-18T00:29:03.424Z,-6.00
2022-12-18T00:30:07.638Z,-6.02
2022-12-18T00:31:11.722Z,-6.02
2022-12-18T00:32:13.183Z,-6.12
2022-12-18T00:33:14.630Z,-6.14
2022-12-18T00:34:16.061Z,-6.18
2022-12-18T00:35:17.503Z,-6.18
2022-12-18T00:36:24.490Z,-6.07
2022-12-18T00:37:25.889Z,-6.13
2022-12-18T00:38:27.312Z,-6.15
2022-12-18T00:39:28.724Z,-6.03
2022-12-18T00:40:30.135Z,-6.06
2022-12-18T00:41:50.512Z,-6.02
2022-12-18T00:42:57.748Z,-6.11
2022-12-18T00:43:59.128Z,-6.12
2022-12-18T00:45:00.539Z,-6.15
2022-12-18T00:46:02.114Z,-6.16
2022-12-18T00:47:03.546Z,-6.17
2022-12-18T00:48:05.260Z,-6.14
2022-12-18T00:49:06.807Z,-6.24
2022-12-18T00:50:08.964Z,-6.19
2022-12-18T00:51:10.364Z,-6.12
2022-12-18T00:52:11.825Z,-6.13
2022-12-18T00:53:13.211Z,-6.16
2022-12-18T00:54:15.034Z,-6.01
2022-12-18T00:55:17.153Z,-6.04
2022-12-18T00:56:18.572Z,-6.06
2022-12-18T00:57:20.455Z,-6.14
2022-12-18T00:58:21.833Z,-6.17
2022-12-18T00:59:23.240Z,-6.21
2022-12-18T01:00:24.720Z,-6.20
2022-12-18T01:01:26.293Z,-6.13
2022-12-18T01:02:27.928Z,-6.19
2022-12-18T01:03:29.508Z,-6.17
2022-12-18T01:04:33.020Z,-6.22
2022-12-18T01:05:34.786Z,-6.22
2022-12-18T01:06:36.240Z,-6.25
2022-12-18T01:07:38.454Z,-6.23
2022-12-18T01:08:40.356Z,-6.16
2022-12-18T01:09:41.810Z,-6.16
2022-12-18T01:10:43.310Z,-6.15
2022-12-18T01:11:44.732Z,-6.19
2022-12-18T01:12:49.617Z,-6.18
2022-12-18T01:13:53.247Z,-6.16
2022-12-18T01:14:54.671Z,-6.21
2022-12-18T01:15:56.083Z,-6.13
2022-12-18T01:16:57.587Z,-6.08
2022-12-18T01:17:58.976Z,-6.15
2022-12-18T01:19:00.693Z,-6.21
2022-12-18T01:20:02.170Z,-6.18
2022-12-18T01:21:12.382Z,-6.13
2022-12-18T01:22:13.838Z,-6.08
2022-12-18T01:23:15.289Z,-6.18
2022-12-18T01:24:16.799Z,-6.27
2022-12-18T01:25:18.279Z,-6.27
2022-12-18T01:26:20.069Z,-6.34
2022-12-18T01:27:21.448Z,-6.20
2022-12-18T01:28:22.831Z,-6.11
2022-12-18T01:29:24.319Z,-6.06
2022-12-18T01:30:25.724Z,-6.12
2022-12-18T01:31:32.453Z,-6.12
2022-12-18T01:32:34.402Z,-6.06
2022-12-18T01:33:36.029Z,-6.14
2022-12-18T01:34:41.152Z,-6.19
2022-12-18T01:35:43.496Z,-6.19
2022-12-18T01:36:44.921Z,-6.21
2022-12-18T01:37:46.363Z,-6.25
2022-12-18T01:38:51.871Z,-6.17
2022-12-18T01:39:55.209Z,-6.19
2022-12-18T01:41:00.997Z,-6.17
2022-12-18T01:42:11.893Z,-6.21
2022-12-18T01:43:16.309Z,-6.27
2022-12-18T01:44:56.180Z,-6.31
2022-12-18T01:46:00.796Z,-6.40
2022-12-18T01:47:02.294Z,-6.41
2022-12-18T01:48:07.988Z,-6.39
2022-12-18T01:49:09.388Z,-6.25
2022-12-18T01:50:13.473Z,-6.22
2022-12-18T01:51:15.197Z,-6.29
2022-12-18T01:52:18.746Z,-6.25
2022-12-18T01:53:23.476Z,-6.28
2022-12-18T01:54:24.855Z,-6.30
2022-12-18T01:55:31.892Z,-6.31
2022-12-18T01:56:33.352Z,-6.45
2022-12-18T01:57:35.737Z,-6.41
2022-12-18T01:58:59.472Z,-6.28
2022-12-18T02:00:05.896Z,-6.24
2022-12-18T02:01:07.395Z,-6.23
2022-12-18T02:02:09.670Z,-6.31
2022-12-18T02:03:11.338Z,-6.39
2022-12-18T02:04:27.381Z,-6.47
2022-12-18T02:05:46.022Z,-6.44
2022-12-18T02:06:53.102Z,-6.45
2022-12-18T02:08:00.430Z,-6.44
2022-12-18T02:09:24.182Z,-6.50
2022-12-18T02:10:44.584Z,-6.52
2022-12-18T02:11:53.535Z,-6.59
2022-12-18T02:13:13.330Z,-6.60
2022-12-18T02:14:46.872Z,-6.63
2022-12-18T02:16:02.368Z,-6.60
2022-12-18T02:17:17.457Z,-6.53
2022-12-18T02:18:44.151Z,-6.48
2022-12-18T02:20:12.681Z,-6.50
2022-12-18T02:21:18.047Z,-6.54
2022-12-18T02:22:57.137Z,-6.53
2022-12-18T02:24:25.218Z,-6.61
2022-12-18T02:25:54.170Z,-6.49
2022-12-18T02:27:08.493Z,-6.49
2022-12-18T02:28:14.046Z,-6.53
2022-12-18T02:29:45.960Z,-6.55
2022-12-18T02:30:50.039Z,-6.58
2022-12-18T02:31:54.744Z,-6.56
2022-12-18T02:32:58.516Z,-6.63
2022-12-18T02:34:03.386Z,-6.54
2022-12-18T02:35:06.981Z,-6.59
2022-12-18T02:36:10.420Z,-6.54
2022-12-18T02:37:16.331Z,-6.41
2022-12-18T02:38:17.938Z,-6.41
2022-12-18T02:39:22.700Z,-6.52
2022-12-18T02:40:27.296Z,-6.45
2022-12-18T02:41:29.526Z,-6.47
2022-12-18T02:42:32.019Z,-6.53
2022-12-18T02:43:33.415Z,-6.59
2022-12-18T02:44:43.311Z,-6.58
2022-12-18T02:45:50.899Z,-6.56
2022-12-18T02:46:54.620Z,-6.53
2022-12-18T02:47:57.121Z,-6.45
2022-12-18T02:49:18.595Z,-6.42
2022-12-18T02:50:28.781Z,-6.60
2022-12-18T02:51:38.501Z,-6.70
2022-12-18T02:52:48.500Z,-6.67
2022-12-18T02:54:07.748Z,-6.65
2022-12-18T02:55:21.175Z,-6.61
2022-12-18T02:56:30.029Z,-6.65
2022-12-18T02:57:36.516Z,-6.68
2022-12-18T02:59:02.029Z,-6.60
2022-12-18T03:00:09.783Z,-6.64
2022-12-18T03:01:35.817Z,-6.66
2022-12-18T03:02:40.669Z,-6.62
2022-12-18T03:04:02.169Z,-6.63
2022-12-18T03:05:09.555Z,-6.64
2022-12-18T03:06:19.411Z,-6.54
2022-12-18T03:07:34.056Z,-6.52
2022-12-18T03:08:41.810Z,-6.61
2022-12-18T03:09:47.271Z,-6.75
2022-12-18T03:10:57.199Z,-6.59
2022-12-18T03:12:26.573Z,-6.67
2022-12-18T03:13:57.081Z,-6.72
2022-12-18T03:15:07.812Z,-6.71
2022-12-18T03:16:14.612Z,-6.78
2022-12-18T03:17:19.077Z,-6.77
2022-12-18T03:18:26.182Z,-6.61
2022-12-18T03:19:30.651Z,-6.55
2022-12-18T03:20:35.147Z,-6.50
2022-12-18T03:21:44.577Z,-6.55
2022-12-18T03:22:51.270Z,-6.54
2022-12-18T03:23:54.531Z,-6.60
2022-12-18T03:24:57.481Z,-6.55
2022-12-18T03:26:07.254Z,-6.58
2022-12-18T03:27:16.239Z,-6.72
2022-12-18T03:28:22.775Z,-6.75
2022-12-18T03:29:34.412Z,-6.69
2022-12-18T03:30:39.672Z,-6.65
2022-12-18T03:31:46.334Z,-6.64
2022-12-18T03:33:33.954Z,-6.66
2022-12-18T03:34:39.347Z,-6.64
2022-12-18T03:35:43.804Z,-6.68
2022-12-18T03:36:45.203Z,-6.59
2022-12-18T03:37:46.720Z,-6.53
2022-12-18T03:38:48.176Z,-6.48
2022-12-18T03:39:49.660Z,-6.41
2022-12-18T03:41:04.031Z,-6.42
2022-12-18T03:42:23.967Z,-6.41
2022-12-18T03:43:48.436Z,-6.47
2022-12-18T03:45:02.554Z,-6.48
2022-12-18T03:46:10.712Z,-6.56
2022-12-18T03:47:28.482Z,-6.41
2022-12-18T03:48:40.437Z,-6.45
2022-12-18T03:50:01.284Z,-6.49
2022-12-18T03:51:15.781Z,-6.57
2022-12-18T03:52:46.245Z,-6.65
2022-12-18T03:54:00.489Z,-6.61
2022-12-18T03:55:04.224Z,-6.57
2022-12-18T03:56:07.489Z,-6.60
2022-12-18T03:57:15.327Z,-6.54
2022-12-18T03:58:21.053Z,-6.64
2022-12-18T03:59:24.616Z,-6.71
2022-12-18T04:00:26.243Z,-6.68
2022-12-18T04:01:34.462Z,-6.71
2022-12-18T04:02:38.617Z,-6.71
2022-12-18T04:03:41.733Z,-6.72
2022-12-18T04:04:45.577Z,-6.70
2022-12-18T04:05:48.890Z,-6.74
2022-12-18T04:06:51.823Z,-6.78
2022-12-18T04:07:54.918Z,-6.75
2022-12-18T04:08:58.147Z,-6.74
2022-12-18T04:10:02.025Z,-6.70
2022-12-18T04:11:03.802Z,-6.65
2022-12-18T04:12:06.956Z,-6.60
2022-12-18T04:13:08.465Z,-6.61
2022-12-18T04:14:14.396Z,-6.59
2022-12-18T04:15:18.981Z,-6.62
2022-12-18T04:16:20.474Z,-6.59
2022-12-18T04:17:23.356Z,-6.70
2022-12-18T04:18:24.801Z,-6.70
2022-12-18T04:19:26.178Z,-6.73
2022-12-18T04:20:27.580Z,-6.77
2022-12-18T04:21:28.983Z,-6.88
2022-12-18T04:22:30.402Z,-6.82
2022-12-18T04:23:31.936Z,-6.70
2022-12-18T04:24:33.423Z,-6.72
2022-12-18T04:25:34.834Z,-6.64
2022-12-18T04:26:36.275Z,-6.56
2022-12-18T04:27:37.675Z,-6.57
2022-12-18T04:28:39.097Z,-6.63
2022-12-18T04:29:40.700Z,-6.70
2022-12-18T04:30:42.133Z,-6.76
2022-12-18T04:31:43.570Z,-6.69
2022-12-18T04:32:50.541Z,-6.65
2022-12-18T04:33:53.656Z,-6.70
2022-12-18T04:34:55.095Z,-6.77
2022-12-18T04:35:56.499Z,-6.77
2022-12-18T04:36:57.908Z,-6.78
2022-12-18T04:37:59.834Z,-6.82
2022-12-18T04:39:01.410Z,-6.85
2022-12-18T04:40:02.841Z,-6.90
2022-12-18T04:41:04.347Z,-6.82
2022-12-18T04:42:05.828Z,-6.87
2022-12-18T04:43:07.334Z,-6.88
2022-12-18T04:44:08.955Z,-6.84
2022-12-18T04:45:10.561Z,-6.81
2022-12-18T04:46:12.018Z,-6.75
2022-12-18T04:47:13.434Z,-6.78
2022-12-18T04:48:14.869Z,-6.79
2022-12-18T04:49:16.289Z,-6.83
2022-12-18T04:50:17.860Z,-6.77
2022-12-18T04:51:24.727Z,-6.78
2022-12-18T04:52:28.120Z,-6.80
2022-12-18T04:53:29.540Z,-6.75
2022-12-18T04:54:30.914Z,-6.76
2022-12-18T04:55:32.297Z,-6.71
2022-12-18T04:56:33.763Z,-6.69
2022-12-18T04:57:35.185Z,-6.65
2022-12-18T04:58:38.046Z,-6.72
2022-12-18T04:59:39.449Z,-6.67
2022-12-18T05:00:40.864Z,-6.68
2022-12-18T05:01:42.350Z,-6.65
2022-12-18T05:02:44.221Z,-6.67
2022-12-18T05:03:46.142Z,-6.70
2022-12-18T05:04:47.706Z,-6.65
2022-12-18T05:05:52.744Z,-6.69
2022-12-18T05:06:54.121Z,-6.61
2022-12-18T05:07:55.573Z,-6.60
2022-12-18T05:08:57.089Z,-6.56
2022-12-18T05:09:58.496Z,-6.60
2022-12-18T05:11:05.216Z,-6.59
2022-12-18T05:12:06.949Z,-6.63
2022-12-18T05:13:08.357Z,-6.67
2022-12-18T05:14:09.761Z,-6.69
2022-12-18T05:15:11.152Z,-6.77
2022-12-18T05:16:13.963Z,-6.77
2022-12-18T05:17:15.394Z,-6.77
2022-12-18T05:18:16.810Z,-6.75
2022-12-18T05:19:18.323Z,-6.78
2022-12-18T05:20:19.947Z,-6.68
2022-12-18T05:21:21.429Z,-6.65
2022-12-18T05:22:22.874Z,-6.60
2022-12-18T05:23:25.159Z,-6.65
2022-12-18T05:24:26.456Z,-6.57
2022-12-18T05:25:27.901Z,-6.61
2022-12-18T05:26:29.326Z,-6.60
2022-12-18T05:27:30.717Z,-6.68
2022-12-18T05:28:33.916Z,-6.61
2022-12-18T05:29:35.363Z,-6.52
2022-12-18T05:30:36.759Z,-6.52
2022-12-18T05:31:39.830Z,-6.53
2022-12-18T05:32:41.472Z,-6.50
2022-12-18T05:33:43.625Z,-6.56
2022-12-18T05:34:45.249Z,-6.63
2022-12-18T05:35:55.088Z,-6.64
2022-12-18T05:36:56.448Z,-6.69
2022-12-18T05:37:57.856Z,-6.63
2022-12-18T05:39:01.054Z,-6.61
2022-12-18T05:40:04.114Z,-6.54
2022-12-18T05:41:06.668Z,-6.49
2022-12-18T05:42:08.071Z,-6.49
2022-12-18T05:43:09.464Z,-6.59
2022-12-18T05:44:10.839Z,-6.55
2022-12-18T05:45:12.250Z,-6.60
2022-12-18T05:46:16.482Z,-6.58
2022-12-18T05:47:18.070Z,-6.62
2022-12-18T05:48:19.987Z,-6.64
2022-12-18T05:49:21.388Z,-6.61
2022-12-18T05:50:22.764Z,-6.66
2022-12-18T05:51:24.190Z,-6.68
2022-12-18T05:52:25.616Z,-6.68
2022-12-18T05:53:27.159Z,-6.48
2022-12-18T05:54:29.389Z,-6.56
2022-12-18T05:55:34.872Z,-6.66
2022-12-18T05:56:36.308Z,-6.67
2022-12-18T05:57:37.718Z,-6.73
2022-12-18T05:58:39.671Z,-6.62
2022-12-18T05:59:41.077Z,-6.59
2022-12-18T06:00:45.114Z,-6.65
2022-12-18T06:01:47.039Z,-6.60
2022-12-18T06:02:48.656Z,-6.58
2022-12-18T06:03:50.527Z,-6.51
2022-12-18T06:04:52.007Z,-6.50
2022-12-18T06:05:53.460Z,-6.51
2022-12-18T06:06:55.018Z,-6.50
2022-12-18T06:07:56.437Z,-6.51
2022-12-18T06:08:57.963Z,-6.58
2022-12-18T06:09:59.419Z,-6.49
2022-12-18T06:11:00.803Z,-6.61
2022-12-18T06:12:02.184Z,-6.55
2022-12-18T06:13:04.137Z,-6.50
2022-12-18T06:14:06.811Z,-6.45
2022-12-18T06:15:08.800Z,-6.45
2022-12-18T06:16:10.277Z,-6.45
2022-12-18T06:17:11.765Z,-6.52
2022-12-18T06:18:13.610Z,-6.60
2022-12-18T06:19:17.122Z,-6.64
2022-12-18T06:20:18.808Z,-6.69
2022-12-18T06:21:20.701Z,-6.70
2022-12-18T06:22:22.497Z,-6.70
2022-12-18T06:23:24.235Z,-6.68
2022-12-18T06:24:25.619Z,-6.64
2022-12-18T06:25:27.110Z,-6.53
2022-12-18T06:26:28.832Z,-6.41
2022-12-18T06:27:30.301Z,-6.47
2022-12-18T06:28:31.778Z,-6.37
2022-12-18T06:29:33.174Z,-6.36
2022-12-18T06:30:34.613Z,-6.46
2022-12-18T06:31:36.096Z,-6.45
2022-12-18T06:32:37.581Z,-6.49
2022-12-18T06:33:39.811Z,-6.46
2022-12-18T06:34:41.385Z,-6.49
2022-12-18T06:35:42.818Z,-6.47
2022-12-18T06:36:44.248Z,-6.39
2022-12-18T06:37:45.658Z,-6.32
2022-12-18T06:38:47.309Z,-6.34
2022-12-18T06:39:48.688Z,-6.43
2022-12-18T06:40:50.108Z,-6.45
2022-12-18T06:41:54.258Z,-6.40
2022-12-18T06:42:55.702Z,-6.49
2022-12-18T06:44:00.008Z,-6.58
2022-12-18T06:45:01.759Z,-6.50
2022-12-18T06:46:04.228Z,-6.53
2022-12-18T06:47:05.720Z,-6.49
2022-12-18T06:48:07.123Z,-6.39
2022-12-18T06:49:10.040Z,-6.49
2022-12-18T06:50:12.667Z,-6.49
2022-12-18T06:51:22.952Z,-6.30
2022-12-18T06:52:24.418Z,-6.34
2022-12-18T06:53:25.908Z,-6.38
2022-12-18T06:54:27.333Z,-6.40
2022-12-18T06:55:28.740Z,-6.45
2022-12-18T06:56:30.649Z,-6.40
2022-12-18T06:57:32.043Z,-6.40
2022-12-18T06:58:34.281Z,-6.42
2022-12-18T06:59:35.599Z,-6.48
2022-12-18T07:00:37.041Z,-6.46
2022-12-18T07:01:38.622Z,-6.37
2022-12-18T07:02:41.387Z,-6.39
2022-12-18T07:03:44.574Z,-6.42
2022-12-18T07:04:46.481Z,-6.43
2022-12-18T07:05:47.873Z,-6.39
2022-12-18T07:06:49.407Z,-6.47
2022-12-18T07:07:50.851Z,-6.42
2022-12-18T07:08:53.967Z,-6.39
2022-12-18T07:09:55.368Z,-6.38
2022-12-18T07:10:56.819Z,-6.47
2022-12-18T07:11:58.249Z,-6.43
2022-12-18T07:13:00.698Z,-6.54
2022-12-18T07:14:02.150Z,-6.38
2022-12-18T07:15:04.088Z,-6.39
2022-12-18T07:16:18.395Z,-6.31
2022-12-18T07:17:22.440Z,-6.31
2022-12-18T07:18:23.869Z,-6.34
2022-12-18T07:19:25.282Z,-6.32
2022-12-18T07:20:26.669Z,-6.32
2022-12-18T07:21:28.098Z,-6.32
2022-12-18T07:22:29.487Z,-6.31
2022-12-18T07:23:31.236Z,-6.31
2022-12-18T07:24:34.780Z,-6.19
2022-12-18T07:25:37.395Z,-6.26
2022-12-18T07:26:39.019Z,-6.27
2022-12-18T07:27:40.873Z,-6.18
2022-12-18T07:28:42.609Z,-6.23
2022-12-18T07:29:44.002Z,-6.25
2022-12-18T07:30:45.421Z,-6.11
2022-12-18T07:31:46.998Z,-6.12
2022-12-18T07:32:48.472Z,-6.07
2022-12-18T07:33:50.874Z,-6.07
2022-12-18T07:34:52.262Z,-6.12
2022-12-18T07:35:53.681Z,-6.09
2022-12-18T07:36:55.092Z,-6.07
2022-12-18T07:37:56.562Z,-6.12
2022-12-18T07:38:58.062Z,-6.09
2022-12-18T07:39:59.481Z,-6.07
2022-12-18T07:41:06.719Z,-6.00
2022-12-18T07:42:26.648Z,-5.96
2022-12-18T07:43:29.333Z,-5.91
2022-12-18T07:44:30.731Z,-5.91
2022-12-18T07:45:32.214Z,-5.91
2022-12-18T07:46:33.669Z,-6.01
2022-12-18T07:47:36.988Z,-6.07
2022-12-18T07:48:38.421Z,-5.99
2022-12-18T07:49:39.876Z,-6.07
2022-12-18T07:50:41.286Z,-6.07
2022-12-18T07:51:43.055Z,-5.94
2022-12-18T07:52:44.499Z,-5.92
2022-12-18T07:53:46.705Z,-5.87
2022-12-18T07:54:51.008Z,-5.91
2022-12-18T07:56:25.608Z,-5.89
2022-12-18T07:57:48.412Z,-5.87
2022-12-18T07:58:40.701Z,-5.87
2022-12-18T07:59:42.123Z,-5.84
2022-12-18T08:00:43.511Z,-5.86
2022-12-18T08:01:46.400Z,-5.76
2022-12-18T08:02:48.592Z,-5.84
2022-12-18T08:03:50.214Z,-5.87
2022-12-18T08:04:53.788Z,-5.92
2022-12-18T08:05:59.751Z,-5.92
2022-12-18T08:07:01.295Z,-5.85
2022-12-18T08:08:02.743Z,-5.75
2022-12-18T08:09:04.182Z,-5.74
2022-12-18T08:10:06.427Z,-5.71
2022-12-18T08:11:07.706Z,-5.74
2022-12-18T08:12:09.097Z,-5.78
2022-12-18T08:13:10.570Z,-5.69
2022-12-18T08:14:12.120Z,-5.75
2022-12-18T08:15:13.517Z,-5.65
2022-12-18T08:16:14.969Z,-5.63
2022-12-18T08:17:16.445Z,-5.64
2022-12-18T08:18:17.966Z,-5.67
2022-12-18T08:19:19.373Z,-5.67
2022-12-18T08:20:20.757Z,-5.66
2022-12-18T08:21:25.533Z,-5.75
2022-12-18T08:22:26.955Z,-5.68
2022-12-18T08:23:28.928Z,-5.60
2022-12-18T08:24:30.448Z,-5.62
2022-12-18T08:25:31.865Z,-5.69
2022-12-18T08:26:33.346Z,-5.64
2022-12-18T08:27:34.851Z,-5.72
2022-12-18T08:28:36.723Z,-5.76
2022-12-18T08:29:38.230Z,-5.80
2022-12-18T08:30:39.640Z,-5.80
2022-12-18T08:31:41.817Z,-5.79
2022-12-18T08:32:43.318Z,-5.77
2022-12-18T08:33:44.843Z,-5.75
2022-12-18T08:34:46.295Z,-5.63
2022-12-18T08:35:47.689Z,-5.64
2022-12-18T08:36:49.124Z,-5.72
2022-12-18T08:37:51.059Z,-5.69
2022-12-18T08:38:52.703Z,-5.62
2022-12-18T08:39:54.109Z,-5.75
2022-12-18T08:41:03.699Z,-5.72
2022-12-18T08:42:23.537Z,-5.72
2022-12-18T08:43:43.564Z,-5.64
2022-12-18T08:44:45.001Z,-5.53
2022-12-18T08:45:46.407Z,-5.67
2022-12-18T08:46:47.964Z,-5.75
2022-12-18T08:47:49.385Z,-5.75
2022-12-18T08:48:56.006Z,-5.75
2022-12-18T08:49:57.419Z,-5.73
2022-12-18T08:51:00.440Z,-5.74
2022-12-18T08:52:03.662Z,-5.86
2022-12-18T08:53:08.163Z,-5.77
2022-12-18T08:54:12.343Z,-5.66
2022-12-18T08:55:13.808Z,-5.63
2022-12-18T08:56:15.629Z,-5.59
2022-12-18T08:57:17.100Z,-5.57
2022-12-18T08:58:18.963Z,-5.59
2022-12-18T08:59:21.131Z,-5.56
2022-12-18T09:00:22.996Z,-5.51
2022-12-18T09:01:24.939Z,-5.55
2022-12-18T09:02:26.585Z,-5.48
2022-12-18T09:03:28.227Z,-5.41
2022-12-18T09:04:29.634Z,-5.38
2022-12-18T09:05:31.509Z,-5.45
2022-12-18T09:06:32.903Z,-5.47
2022-12-18T09:07:34.355Z,-5.42
2022-12-18T09:08:35.908Z,-5.41
2022-12-18T09:09:37.297Z,-5.45
2022-12-18T09:10:46.641Z,-5.43
2022-12-18T09:11:48.083Z,-5.51
2022-12-18T09:12:52.255Z,-5.47
2022-12-18T09:13:54.792Z,-5.50
2022-12-18T09:14:57.279Z,-5.51
2022-12-18T09:15:58.868Z,-5.36
2022-12-18T09:17:00.326Z,-5.36
2022-12-18T09:18:01.817Z,-5.36
2022-12-18T09:19:05.447Z,-5.27
2022-12-18T09:20:07.911Z,-5.30
2022-12-18T09:21:21.440Z,-5.26
2022-12-18T09:22:22.808Z,-5.43
2022-12-18T09:23:24.232Z,-5.38
2022-12-18T09:24:25.638Z,-5.47
2022-12-18T09:25:28.658Z,-5.45
2022-12-18T09:26:30.098Z,-5.39
2022-12-18T09:27:31.519Z,-5.28
2022-12-18T09:28:33.285Z,-5.21
2022-12-18T09:29:34.735Z,-5.32
2022-12-18T09:30:42.139Z,-5.26
2022-12-18T09:31:43.562Z,-5.39
2022-12-18T09:32:44.963Z,-5.16
2022-12-18T09:33:46.370Z,-5.15
2022-12-18T09:34:48.253Z,-5.18
2022-12-18T09:35:49.702Z,-5.21
2022-12-18T09:36:51.250Z,-5.09
2022-12-18T09:37:55.681Z,-5.10
2022-12-18T09:38:57.792Z,-5.12
2022-12-18T09:39:59.180Z,-5.05
2022-12-18T09:41:06.421Z,-4.99
2022-12-18T09:42:21.111Z,-5.04
2022-12-18T09:43:34.967Z,-5.02
2022-12-18T09:44:49.478Z,-4.99
2022-12-18T09:45:58.148Z,-4.86
2022-12-18T09:47:08.320Z,-4.89
2022-12-18T09:48:27.180Z,-4.90
2022-12-18T09:49:31.435Z,-4.94
2022-12-18T09:50:36.176Z,-4.91
2022-12-18T09:51:44.273Z,-4.76
2022-12-18T09:52:50.489Z,-4.73
2022-12-18T09:53:59.159Z,-4.57
2022-12-18T09:55:14.605Z,-4.64
2022-12-18T09:56:20.448Z,-4.61
2022-12-18T09:57:25.371Z,-4.60
2022-12-18T09:58:37.108Z,-4.59
2022-12-18T09:59:40.725Z,-4.52
2022-12-18T10:00:42.268Z,-4.53
2022-12-18T10:01:44.751Z,-4.51
2022-12-18T10:02:49.835Z,-4.43
2022-12-18T10:03:52.914Z,-4.42
2022-12-18T10:05:31.751Z,-4.39
2022-12-18T10:06:42.549Z,-4.39
2022-12-18T10:08:12.052Z,-4.41
2022-12-18T10:09:22.861Z,-4.37
2022-12-18T10:10:54.483Z,-4.35
2022-12-18T10:12:17.777Z,-4.39
2022-12-18T10:13:31.982Z,-4.31
2022-12-18T10:15:17.675Z,-4.17
2022-12-18T10:16:28.730Z,-4.26
2022-12-18T10:18:01.115Z,-4.24
2022-12-18T10:19:10.900Z,-4.13
2022-12-18T10:20:21.412Z,-4.14
2022-12-18T10:21:31.724Z,-4.15
2022-12-18T10:22:39.133Z,-4.15
2022-12-18T10:24:02.090Z,-4.05
2022-12-18T10:25:21.612Z,-4.05
2022-12-18T10:26:23.237Z,-4.01
2022-12-18T10:27:27.243Z,-4.03
2022-12-18T10:28:32.155Z,-4.03
2022-12-18T10:29:33.656Z,-4.00
2022-12-18T10:30:35.072Z,-4.01
2022-12-18T10:31:36.649Z,-4.06
2022-12-18T10:32:38.504Z,-4.07
2022-12-18T10:33:42.213Z,-3.96
2022-12-18T10:34:47.454Z,-3.99
2022-12-18T10:35:51.534Z,-3.95
2022-12-18T10:36:53.022Z,-3.93
2022-12-18T10:38:04.990Z,-3.96
2022-12-18T10:39:24.626Z,-3.98
2022-12-18T10:40:26.164Z,-3.93
2022-12-18T10:41:29.448Z,-4.05
2022-12-18T10:42:31.025Z,-4.05
2022-12-18T10:43:40.547Z,-4.03
2022-12-18T10:44:41.998Z,-4.09
2022-12-18T10:46:00.103Z,-4.10
2022-12-18T10:47:11.835Z,-4.01
2022-12-18T10:48:23.242Z,-4.09
2022-12-18T10:49:28.905Z,-3.98
2022-12-18T10:51:09.292Z,-3.88
2022-12-18T10:52:32.288Z,-3.85
2022-12-18T10:53:37.231Z,-3.89
2022-12-18T10:54:39.473Z,-3.94
2022-12-18T10:55:46.867Z,-4.01
2022-12-18T10:56:48.769Z,-4.06
2022-12-18T10:57:53.135Z,-4.03
2022-12-18T10:59:06.850Z,-4.04
2022-12-18T11:00:36.761Z,-4.03
2022-12-18T11:01:56.584Z,-4.04
2022-12-18T11:03:01.071Z,-3.94
2022-12-18T11:04:09.756Z,-3.94
2022-12-18T11:05:24.118Z,-3.93
2022-12-18T11:06:26.563Z,-3.90
2022-12-18T11:07:49.638Z,-3.86
2022-12-18T11:09:23.683Z,-3.92
2022-12-18T11:10:37.849Z,-3.90
2022-12-18T11:11:39.331Z,-3.95
2022-12-18T11:12:40.778Z,-3.99
2022-12-18T11:13:44.878Z,-3.87
2022-12-18T11:14:52.712Z,-3.93
2022-12-18T11:15:54.912Z,-3.85
2022-12-18T11:17:24.288Z,-3.92
2022-12-18T11:18:34.259Z,-3.93
2022-12-18T11:19:38.199Z,-3.92
2022-12-18T11:20:39.998Z,-3.92
2022-12-18T11:21:44.368Z,-3.85
2022-12-18T11:22:57.964Z,-3.79
2022-12-18T11:23:59.384Z,-3.88
2022-12-18T11:26:37.159Z,-3.76
2022-12-18T11:27:40.623Z,-3.81
2022-12-18T11:28:47.375Z,-3.76
2022-12-18T11:29:52.782Z,-3.82
2022-12-18T11:31:22.210Z,-3.81
2022-12-18T11:32:39.513Z,-3.84
2022-12-18T11:34:04.876Z,-3.85
2022-12-18T11:35:45.599Z,-3.84
2022-12-18T11:36:48.314Z,-3.78
2022-12-18T11:37:58.554Z,-3.80
2022-12-18T11:39:07.172Z,-3.77
2022-12-18T11:40:23.465Z,-3.70
2022-12-18T11:41:52.129Z,-3.69
2022-12-18T11:43:01.892Z,-3.76
2022-12-18T11:44:06.595Z,-3.71
2022-12-18T11:45:13.991Z,-3.62
2022-12-18T11:46:24.025Z,-3.71
2022-12-18T11:47:43.532Z,-3.76
2022-12-18T11:48:58.868Z,-3.78
2022-12-18T11:50:02.819Z,-3.76
2022-12-18T11:51:12.119Z,-3.80
2022-12-18T11:52:19.269Z,-3.68
2022-12-18T11:53:21.465Z,-3.76
2022-12-18T11:54:22.839Z,-3.76
2022-12-18T11:55:41.892Z,-3.72
2022-12-18T11:57:14.348Z,-3.73
2022-12-18T11:58:30.956Z,-3.76
2022-12-18T11:59:44.927Z,-3.69
2022-12-18T12:00:57.238Z,-3.73
2022-12-18T12:02:10.698Z,-3.80
2022-12-18T12:03:45.599Z,-3.79
2022-12-18T12:05:20.583Z,-3.81
2022-12-18T12:06:22.340Z,-3.82
2022-12-18T12:07:29.744Z,-3.78
2022-12-18T12:08:42.132Z,-3.83
2022-12-18T12:10:28.921Z,-3.87
2022-12-18T12:11:44.518Z,-3.77
2022-12-18T12:13:15.223Z,-3.76
2022-12-18T12:14:51.945Z,-3.72
2022-12-18T12:16:24.532Z,-3.72
2022-12-18T12:17:38.809Z,-3.77
2022-12-18T12:18:53.475Z,-3.80
2022-12-18T12:20:14.000Z,-3.76
2022-12-18T12:21:26.317Z,-3.73
2022-12-18T12:22:40.962Z,-3.61
2022-12-18T12:24:26.918Z,-3.63
2022-12-18T12:25:38.898Z,-3.65
2022-12-18T12:26:51.759Z,-3.62
2022-12-18T12:28:07.759Z,-3.71
2022-12-18T12:29:28.927Z,-3.63
2022-12-18T12:31:07.958Z,-3.59
2022-12-18T12:32:27.129Z,-3.57
2022-12-18T12:33:37.820Z,-3.59
2022-12-18T12:35:11.650Z,-3.57
2022-12-18T12:36:31.752Z,-3.55
2022-12-18T12:37:54.447Z,-3.56
2022-12-18T12:39:02.039Z,-3.59
2022-12-18T12:40:15.327Z,-3.48
2022-12-18T12:41:47.188Z,-3.57
2022-12-18T12:43:17.693Z,-3.63
2022-12-18T12:44:31.647Z,-3.59
2022-12-18T12:46:13.691Z,-3.63
2022-12-18T12:47:27.750Z,-3.57
2022-12-18T12:48:51.383Z,-3.47
2022-12-18T12:49:53.087Z,-3.46
2022-12-18T12:50:56.311Z,-3.41
2022-12-18T12:52:13.147Z,-3.46
2022-12-18T12:53:31.791Z,-3.59
2022-12-18T12:54:34.758Z,-3.47
2022-12-18T12:55:36.771Z,-3.43
2022-12-18T12:56:46.633Z,-3.54
2022-12-18T12:58:29.083Z,-3.62
2022-12-18T12:59:40.935Z,-3.73
2022-12-18T13:00:59.326Z,-3.77
2022-12-18T13:02:15.574Z,-3.64
2022-12-18T13:03:41.990Z,-3.68
2022-12-18T13:04:49.583Z,-3.65
2022-12-18T13:05:56.002Z,-3.63
2022-12-18T13:07:01.953Z,-3.66
2022-12-18T13:09:36.955Z,-3.65
2022-12-18T13:10:43.808Z,-3.65
2022-12-18T13:12:06.457Z,-3.56
2022-12-18T13:13:23.747Z,-3.57
2022-12-18T13:14:41.516Z,-3.58
2022-12-18T13:15:51.177Z,-3.60
2022-12-18T13:17:13.228Z,-3.57
2022-12-18T13:18:21.041Z,-3.66
2022-12-18T13:19:26.352Z,-3.64
2022-12-18T13:20:35.589Z,-3.54
2022-12-18T13:21:37.124Z,-3.56
2022-12-18T13:22:48.269Z,-3.61
2022-12-18T13:23:49.888Z,-3.63
2022-12-18T13:24:52.146Z,-3.66
2022-12-18T13:25:54.703Z,-3.69
2022-12-18T13:26:56.123Z,-3.74
2022-12-18T13:28:04.923Z,-3.72
2022-12-18T13:29:07.074Z,-3.67
2022-12-18T13:30:52.572Z,-3.57
2022-12-18T13:32:01.816Z,-3.61
2022-12-18T13:33:15.145Z,-3.78
2022-12-18T13:34:27.576Z,-3.78
2022-12-18T13:35:32.508Z,-3.73
2022-12-18T13:36:35.115Z,-3.71
2022-12-18T13:37:44.332Z,-3.70
2022-12-18T13:38:45.867Z,-3.71
2022-12-18T13:39:47.569Z,-3.70
2022-12-18T13:40:48.940Z,-3.73
2022-12-18T13:41:53.828Z,-3.74
2022-12-18T13:43:14.047Z,-3.77
2022-12-18T13:44:42.324Z,-3.83
2022-12-18T13:45:50.265Z,-3.90
2022-12-18T13:46:53.179Z,-3.93
2022-12-18T13:47:54.675Z,-3.93
2022-12-18T13:48:59.195Z,-3.90
2022-12-18T13:50:10.258Z,-3.86
2022-12-18T13:51:18.925Z,-3.81
2022-12-18T13:52:23.904Z,-3.76
2022-12-18T13:53:33.823Z,-3.79
2022-12-18T13:54:38.548Z,-3.83
2022-12-18T13:55:45.975Z,-3.84
2022-12-18T13:56:49.359Z,-3.87
2022-12-18T13:57:50.781Z,-3.90
2022-12-18T13:59:05.273Z,-4.01
2022-12-18T14:00:28.323Z,-4.03
2022-12-18T14:01:30.140Z,-4.04
2022-12-18T14:02:32.463Z,-4.05
2022-12-18T14:03:33.933Z,-4.09
2022-12-18T14:04:36.587Z,-4.16
2022-12-18T14:05:40.250Z,-4.17
2022-12-18T14:06:47.609Z,-4.03
2022-12-18T14:07:49.269Z,-4.02
2022-12-18T14:08:53.756Z,-3.97
2022-12-18T14:10:41.239Z,-3.97
2022-12-18T14:11:24.050Z,-4.01
2022-12-18T14:12:49.649Z,-4.03
2022-12-18T14:13:51.560Z,-4.09
2022-12-18T14:14:55.228Z,-3.98
2022-12-18T14:15:57.766Z,-3.94
2022-12-18T14:17:00.811Z,-3.92
2022-12-18T14:18:24.456Z,-3.92
2022-12-18T14:19:28.191Z,-4.04
2022-12-18T14:20:33.508Z,-4.01
2022-12-18T14:21:36.064Z,-4.10
2022-12-18T14:22:37.471Z,-4.18